sensor_id;sensor_type;location;lat;lon;timestamp;P1;durP1;ratioP1;P2;durP2;ratioP2
48487;SDS011;34289;48.572;13.378;2023-02-04T00:01:48;6.97;;;2.40;;
48487;SDS011;34289;48.572;13.378;2023-02-04T00:04:14;10.55;;;2.80;;
48487;SDS011;34289;48.572;13.378;2023-02-04T00:06:39;7.25;;;2.47;;
48487;SDS011;34289;48.572;13.378;2023-02-04T00:09:05;10.05;;;2.85;;
48487;SDS011;34289;48.572;13.378;2023-02-04T00:11:31;8.35;;;2.40;;
48487;SDS011;34289;48.572;13.378;2023-02-04T00:13:56;8.65;;;2.78;;
48487;SDS011;34289;48.572;13.378;2023-02-04T00:16:22;7.03;;;2.40;;
48487;SDS011;34289;48.572;13.378;2023-02-04T00:18:48;5.28;;;2.50;;
48487;SDS011;34289;48.572;13.378;2023-02-04T00:21:13;9.45;;;2.33;;
48487;SDS011;34289;48.572;13.378;2023-02-04T00:23:39;10.75;;;3.17;;
48487;SDS011;34289;48.572;13.378;2023-02-04T00:26:05;11.32;;;3.53;;
48487;SDS011;34289;48.572;13.378;2023-02-04T00:28:31;6.10;;;2.75;;
48487;SDS011;34289;48.572;13.378;2023-02-04T00:30:57;12.65;;;3.13;;
48487;SDS011;34289;48.572;13.378;2023-02-04T00:33:22;5.57;;;2.42;;
48487;SDS011;34289;48.572;13.378;2023-02-04T00:35:48;8.27;;;2.75;;
48487;SDS011;34289;48.572;13.378;2023-02-04T00:38:13;8.57;;;2.58;;
48487;SDS011;34289;48.572;13.378;2023-02-04T00:40:39;8.63;;;2.75;;
48487;SDS011;34289;48.572;13.378;2023-02-04T00:43:05;7.63;;;2.30;;
48487;SDS011;34289;48.572;13.378;2023-02-04T00:45:30;6.15;;;2.78;;
48487;SDS011;34289;48.572;13.378;2023-02-04T00:47:56;11.23;;;2.63;;
48487;SDS011;34289;48.572;13.378;2023-02-04T00:50:22;11.55;;;2.72;;
48487;SDS011;34289;48.572;13.378;2023-02-04T00:52:48;7.93;;;3.17;;
48487;SDS011;34289;48.572;13.378;2023-02-04T00:55:13;9.98;;;3.38;;
48487;SDS011;34289;48.572;13.378;2023-02-04T00:57:41;7.65;;;2.75;;
48487;SDS011;34289;48.572;13.378;2023-02-04T01:00:07;16.20;;;3.40;;
48487;SDS011;34289;48.572;13.378;2023-02-04T01:02:33;10.52;;;2.85;;
48487;SDS011;34289;48.572;13.378;2023-02-04T01:04:58;10.85;;;3.25;;
48487;SDS011;34289;48.572;13.378;2023-02-04T01:07:25;10.10;;;3.10;;
48487;SDS011;34289;48.572;13.378;2023-02-04T01:09:50;8.80;;;2.72;;
48487;SDS011;34289;48.572;13.378;2023-02-04T01:12:16;12.57;;;3.13;;
48487;SDS011;34289;48.572;13.378;2023-02-04T01:14:42;11.65;;;2.70;;
48487;SDS011;34289;48.572;13.378;2023-02-04T01:17:07;7.82;;;3.58;;
48487;SDS011;34289;48.572;13.378;2023-02-04T01:19:33;6.78;;;2.92;;
48487;SDS011;34289;48.572;13.378;2023-02-04T01:21:58;12.43;;;4.00;;
48487;SDS011;34289;48.572;13.378;2023-02-04T01:24:24;12.23;;;3.15;;
48487;SDS011;34289;48.572;13.378;2023-02-04T01:26:50;10.80;;;3.13;;
48487;SDS011;34289;48.572;13.378;2023-02-04T01:29:15;12.65;;;3.33;;
48487;SDS011;34289;48.572;13.378;2023-02-04T01:31:41;8.00;;;3.20;;
48487;SDS011;34289;48.572;13.378;2023-02-04T01:34:07;9.38;;;3.40;;
48487;SDS011;34289;48.572;13.378;2023-02-04T01:36:32;9.18;;;3.08;;
48487;SDS011;34289;48.572;13.378;2023-02-04T01:38:58;7.63;;;2.78;;
48487;SDS011;34289;48.572;13.378;2023-02-04T01:41:25;12.25;;;3.95;;
48487;SDS011;34289;48.572;13.378;2023-02-04T01:43:52;13.68;;;3.83;;
48487;SDS011;34289;48.572;13.378;2023-02-04T01:46:18;9.60;;;3.03;;
48487;SDS011;34289;48.572;13.378;2023-02-04T01:48:43;10.50;;;3.20;;
48487;SDS011;34289;48.572;13.378;2023-02-04T01:51:13;10.68;;;2.92;;
48487;SDS011;34289;48.572;13.378;2023-02-04T01:53:42;9.57;;;3.03;;
48487;SDS011;34289;48.572;13.378;2023-02-04T01:56:19;9.20;;;2.80;;
48487;SDS011;34289;48.572;13.378;2023-02-04T01:58:47;10.43;;;3.28;;
48487;SDS011;34289;48.572;13.378;2023-02-04T02:01:14;12.35;;;2.78;;
48487;SDS011;34289;48.572;13.378;2023-02-04T02:03:57;13.75;;;3.33;;
48487;SDS011;34289;48.572;13.378;2023-02-04T02:06:23;6.43;;;2.67;;
48487;SDS011;34289;48.572;13.378;2023-02-04T02:08:49;8.70;;;2.83;;
48487;SDS011;34289;48.572;13.378;2023-02-04T02:11:14;10.32;;;3.15;;
48487;SDS011;34289;48.572;13.378;2023-02-04T02:13:40;11.93;;;3.50;;
48487;SDS011;34289;48.572;13.378;2023-02-04T02:16:06;10.07;;;2.85;;
48487;SDS011;34289;48.572;13.378;2023-02-04T02:18:31;12.77;;;2.78;;
48487;SDS011;34289;48.572;13.378;2023-02-04T02:20:57;11.68;;;3.20;;
48487;SDS011;34289;48.572;13.378;2023-02-04T02:23:46;12.65;;;3.40;;
48487;SDS011;34289;48.572;13.378;2023-02-04T02:26:17;9.93;;;3.58;;
48487;SDS011;34289;48.572;13.378;2023-02-04T02:28:44;12.13;;;4.60;;
48487;SDS011;34289;48.572;13.378;2023-02-04T02:31:12;12.80;;;3.63;;
48487;SDS011;34289;48.572;13.378;2023-02-04T02:33:38;9.73;;;3.17;;
48487;SDS011;34289;48.572;13.378;2023-02-04T02:36:04;20.10;;;4.40;;
48487;SDS011;34289;48.572;13.378;2023-02-04T02:38:33;9.32;;;3.40;;
48487;SDS011;34289;48.572;13.378;2023-02-04T02:40:58;8.80;;;2.88;;
48487;SDS011;34289;48.572;13.378;2023-02-04T02:43:25;11.85;;;3.45;;
48487;SDS011;34289;48.572;13.378;2023-02-04T02:45:52;12.13;;;4.13;;
48487;SDS011;34289;48.572;13.378;2023-02-04T02:48:21;13.68;;;4.38;;
48487;SDS011;34289;48.572;13.378;2023-02-04T02:50:46;9.70;;;2.92;;
48487;SDS011;34289;48.572;13.378;2023-02-04T02:53:14;10.50;;;2.85;;
48487;SDS011;34289;48.572;13.378;2023-02-04T02:55:41;11.02;;;2.95;;
48487;SDS011;34289;48.572;13.378;2023-02-04T02:58:10;10.13;;;3.72;;
48487;SDS011;34289;48.572;13.378;2023-02-04T03:00:57;8.20;;;3.03;;
48487;SDS011;34289;48.572;13.378;2023-02-04T03:03:25;10.20;;;3.05;;
48487;SDS011;34289;48.572;13.378;2023-02-04T03:05:54;16.83;;;3.90;;
48487;SDS011;34289;48.572;13.378;2023-02-04T03:08:26;16.33;;;4.22;;
48487;SDS011;34289;48.572;13.378;2023-02-04T03:10:52;13.35;;;3.47;;
48487;SDS011;34289;48.572;13.378;2023-02-04T03:13:18;11.20;;;3.22;;
48487;SDS011;34289;48.572;13.378;2023-02-04T03:15:44;11.93;;;3.40;;
48487;SDS011;34289;48.572;13.378;2023-02-04T03:18:12;11.75;;;3.55;;
48487;SDS011;34289;48.572;13.378;2023-02-04T03:20:39;16.02;;;4.43;;
48487;SDS011;34289;48.572;13.378;2023-02-04T03:23:06;7.95;;;2.97;;
48487;SDS011;34289;48.572;13.378;2023-02-04T03:25:31;8.40;;;3.38;;
48487;SDS011;34289;48.572;13.378;2023-02-04T03:27:58;19.10;;;3.70;;
48487;SDS011;34289;48.572;13.378;2023-02-04T03:30:24;13.02;;;4.57;;
48487;SDS011;34289;48.572;13.378;2023-02-04T03:32:50;16.25;;;4.07;;
48487;SDS011;34289;48.572;13.378;2023-02-04T03:35:16;13.85;;;4.25;;
48487;SDS011;34289;48.572;13.378;2023-02-04T03:37:42;16.42;;;5.85;;
48487;SDS011;34289;48.572;13.378;2023-02-04T03:40:09;13.18;;;4.30;;
48487;SDS011;34289;48.572;13.378;2023-02-04T03:42:35;15.35;;;4.53;;
48487;SDS011;34289;48.572;13.378;2023-02-04T03:45:01;10.18;;;4.70;;
48487;SDS011;34289;48.572;13.378;2023-02-04T03:47:26;16.70;;;6.32;;
48487;SDS011;34289;48.572;13.378;2023-02-04T03:49:52;12.15;;;4.55;;
48487;SDS011;34289;48.572;13.378;2023-02-04T03:52:18;11.70;;;3.58;;
48487;SDS011;34289;48.572;13.378;2023-02-04T03:54:44;14.52;;;5.30;;
48487;SDS011;34289;48.572;13.378;2023-02-04T03:57:10;15.70;;;4.78;;
48487;SDS011;34289;48.572;13.378;2023-02-04T03:59:36;15.80;;;4.63;;
48487;SDS011;34289;48.572;13.378;2023-02-04T04:02:01;14.90;;;3.60;;
48487;SDS011;34289;48.572;13.378;2023-02-04T04:04:27;13.25;;;3.85;;
48487;SDS011;34289;48.572;13.378;2023-02-04T04:06:53;13.32;;;3.80;;
48487;SDS011;34289;48.572;13.378;2023-02-04T04:09:19;11.82;;;3.83;;
48487;SDS011;34289;48.572;13.378;2023-02-04T04:11:45;11.82;;;3.72;;
48487;SDS011;34289;48.572;13.378;2023-02-04T04:14:10;9.48;;;3.45;;
48487;SDS011;34289;48.572;13.378;2023-02-04T04:16:36;9.98;;;4.70;;
48487;SDS011;34289;48.572;13.378;2023-02-04T04:19:02;12.50;;;3.80;;
48487;SDS011;34289;48.572;13.378;2023-02-04T04:21:27;11.57;;;3.55;;
48487;SDS011;34289;48.572;13.378;2023-02-04T04:23:53;11.02;;;4.03;;
48487;SDS011;34289;48.572;13.378;2023-02-04T04:26:19;12.10;;;4.57;;
48487;SDS011;34289;48.572;13.378;2023-02-04T04:28:44;12.80;;;4.13;;
48487;SDS011;34289;48.572;13.378;2023-02-04T04:31:10;17.80;;;6.88;;
48487;SDS011;34289;48.572;13.378;2023-02-04T04:33:35;6.35;;;4.25;;
48487;SDS011;34289;48.572;13.378;2023-02-04T04:36:01;12.32;;;4.63;;
48487;SDS011;34289;48.572;13.378;2023-02-04T04:38:27;11.10;;;5.05;;
48487;SDS011;34289;48.572;13.378;2023-02-04T04:40:52;7.63;;;3.60;;
48487;SDS011;34289;48.572;13.378;2023-02-04T04:43:18;11.80;;;4.78;;
48487;SDS011;34289;48.572;13.378;2023-02-04T04:45:44;15.85;;;4.75;;
48487;SDS011;34289;48.572;13.378;2023-02-04T04:48:10;16.95;;;4.53;;
48487;SDS011;34289;48.572;13.378;2023-02-04T04:50:36;15.75;;;4.03;;
48487;SDS011;34289;48.572;13.378;2023-02-04T04:53:01;11.70;;;4.18;;
48487;SDS011;34289;48.572;13.378;2023-02-04T04:55:27;18.27;;;4.18;;
48487;SDS011;34289;48.572;13.378;2023-02-04T04:57:53;11.35;;;3.15;;
48487;SDS011;34289;48.572;13.378;2023-02-04T05:00:19;16.27;;;3.83;;
48487;SDS011;34289;48.572;13.378;2023-02-04T05:02:45;6.93;;;2.60;;
48487;SDS011;34289;48.572;13.378;2023-02-04T05:05:11;10.07;;;3.55;;
48487;SDS011;34289;48.572;13.378;2023-02-04T05:07:38;13.07;;;4.50;;
48487;SDS011;34289;48.572;13.378;2023-02-04T05:10:04;11.55;;;3.80;;
48487;SDS011;34289;48.572;13.378;2023-02-04T05:12:30;11.30;;;3.03;;
48487;SDS011;34289;48.572;13.378;2023-02-04T05:14:56;12.68;;;3.17;;
48487;SDS011;34289;48.572;13.378;2023-02-04T05:17:22;9.63;;;3.10;;
48487;SDS011;34289;48.572;13.378;2023-02-04T05:19:47;9.32;;;3.58;;
48487;SDS011;34289;48.572;13.378;2023-02-04T05:22:13;7.80;;;2.90;;
48487;SDS011;34289;48.572;13.378;2023-02-04T05:24:38;11.45;;;2.95;;
48487;SDS011;34289;48.572;13.378;2023-02-04T05:27:04;13.30;;;3.15;;
48487;SDS011;34289;48.572;13.378;2023-02-04T05:29:29;10.30;;;2.90;;
48487;SDS011;34289;48.572;13.378;2023-02-04T05:31:55;11.95;;;3.50;;
48487;SDS011;34289;48.572;13.378;2023-02-04T05:34:21;7.53;;;2.92;;
48487;SDS011;34289;48.572;13.378;2023-02-04T05:36:46;11.30;;;2.92;;
48487;SDS011;34289;48.572;13.378;2023-02-04T05:39:12;11.13;;;2.65;;
48487;SDS011;34289;48.572;13.378;2023-02-04T05:41:37;10.15;;;2.88;;
48487;SDS011;34289;48.572;13.378;2023-02-04T05:44:03;14.90;;;3.28;;
48487;SDS011;34289;48.572;13.378;2023-02-04T05:46:29;12.32;;;2.55;;
48487;SDS011;34289;48.572;13.378;2023-02-04T05:48:55;9.65;;;2.83;;
48487;SDS011;34289;48.572;13.378;2023-02-04T05:51:23;14.75;;;4.05;;
48487;SDS011;34289;48.572;13.378;2023-02-04T05:53:48;10.65;;;3.40;;
48487;SDS011;34289;48.572;13.378;2023-02-04T05:56:14;14.63;;;3.53;;
48487;SDS011;34289;48.572;13.378;2023-02-04T05:58:40;10.65;;;3.65;;
48487;SDS011;34289;48.572;13.378;2023-02-04T06:01:05;17.98;;;2.97;;
48487;SDS011;34289;48.572;13.378;2023-02-04T06:03:31;11.93;;;2.85;;
48487;SDS011;34289;48.572;13.378;2023-02-04T06:05:57;12.30;;;2.75;;
48487;SDS011;34289;48.572;13.378;2023-02-04T06:08:23;7.95;;;2.63;;
48487;SDS011;34289;48.572;13.378;2023-02-04T06:10:48;10.60;;;2.95;;
48487;SDS011;34289;48.572;13.378;2023-02-04T06:13:14;10.10;;;2.85;;
48487;SDS011;34289;48.572;13.378;2023-02-04T06:15:40;10.68;;;2.92;;
48487;SDS011;34289;48.572;13.378;2023-02-04T06:18:06;9.40;;;3.42;;
48487;SDS011;34289;48.572;13.378;2023-02-04T06:20:32;9.90;;;3.17;;
48487;SDS011;34289;48.572;13.378;2023-02-04T06:22:58;5.88;;;2.40;;
48487;SDS011;34289;48.572;13.378;2023-02-04T06:25:24;11.13;;;2.95;;
48487;SDS011;34289;48.572;13.378;2023-02-04T06:27:49;8.68;;;3.00;;
48487;SDS011;34289;48.572;13.378;2023-02-04T06:30:15;10.98;;;2.80;;
48487;SDS011;34289;48.572;13.378;2023-02-04T06:32:42;7.95;;;2.72;;
48487;SDS011;34289;48.572;13.378;2023-02-04T06:35:08;9.18;;;2.70;;
48487;SDS011;34289;48.572;13.378;2023-02-04T06:37:34;9.77;;;3.05;;
48487;SDS011;34289;48.572;13.378;2023-02-04T06:40:00;9.13;;;2.45;;
48487;SDS011;34289;48.572;13.378;2023-02-04T06:42:26;5.18;;;2.15;;
48487;SDS011;34289;48.572;13.378;2023-02-04T06:44:51;5.78;;;2.13;;
48487;SDS011;34289;48.572;13.378;2023-02-04T06:47:17;4.90;;;2.25;;
48487;SDS011;34289;48.572;13.378;2023-02-04T06:49:43;4.90;;;2.33;;
48487;SDS011;34289;48.572;13.378;2023-02-04T06:52:09;6.18;;;2.90;;
48487;SDS011;34289;48.572;13.378;2023-02-04T06:54:35;4.35;;;2.35;;
48487;SDS011;34289;48.572;13.378;2023-02-04T06:57:01;6.55;;;2.20;;
48487;SDS011;34289;48.572;13.378;2023-02-04T06:59:35;6.05;;;2.42;;
48487;SDS011;34289;48.572;13.378;2023-02-04T07:02:02;5.38;;;2.45;;
48487;SDS011;34289;48.572;13.378;2023-02-04T07:04:28;5.03;;;2.10;;
48487;SDS011;34289;48.572;13.378;2023-02-04T07:06:54;3.85;;;2.10;;
48487;SDS011;34289;48.572;13.378;2023-02-04T07:09:20;2.63;;;1.75;;
48487;SDS011;34289;48.572;13.378;2023-02-04T07:11:45;3.47;;;1.65;;
48487;SDS011;34289;48.572;13.378;2023-02-04T07:14:11;4.28;;;2.63;;
48487;SDS011;34289;48.572;13.378;2023-02-04T07:16:37;5.85;;;1.90;;
48487;SDS011;34289;48.572;13.378;2023-02-04T07:19:03;3.97;;;2.20;;
48487;SDS011;34289;48.572;13.378;2023-02-04T07:21:28;1.90;;;1.48;;
48487;SDS011;34289;48.572;13.378;2023-02-04T07:23:54;6.57;;;2.40;;
48487;SDS011;34289;48.572;13.378;2023-02-04T07:26:19;2.50;;;2.28;;
48487;SDS011;34289;48.572;13.378;2023-02-04T07:28:45;5.57;;;2.60;;
48487;SDS011;34289;48.572;13.378;2023-02-04T07:31:14;2.30;;;2.10;;
48487;SDS011;34289;48.572;13.378;2023-02-04T07:33:39;2.95;;;2.72;;
48487;SDS011;34289;48.572;13.378;2023-02-04T07:36:05;3.03;;;2.50;;
48487;SDS011;34289;48.572;13.378;2023-02-04T07:38:31;3.60;;;3.13;;
48487;SDS011;34289;48.572;13.378;2023-02-04T07:40:57;5.22;;;4.05;;
48487;SDS011;34289;48.572;13.378;2023-02-04T07:43:22;12.45;;;7.55;;
48487;SDS011;34289;48.572;13.378;2023-02-04T07:45:48;11.45;;;7.03;;
48487;SDS011;34289;48.572;13.378;2023-02-04T07:48:14;10.70;;;8.15;;
48487;SDS011;34289;48.572;13.378;2023-02-04T07:50:39;7.60;;;6.47;;
48487;SDS011;34289;48.572;13.378;2023-02-04T07:53:05;12.43;;;7.88;;
48487;SDS011;34289;48.572;13.378;2023-02-04T07:55:31;7.38;;;5.85;;
48487;SDS011;34289;48.572;13.378;2023-02-04T07:57:56;4.82;;;4.15;;
48487;SDS011;34289;48.572;13.378;2023-02-04T08:00:22;2.70;;;2.50;;
48487;SDS011;34289;48.572;13.378;2023-02-04T08:02:48;3.50;;;2.65;;
48487;SDS011;34289;48.572;13.378;2023-02-04T08:05:14;3.28;;;2.67;;
48487;SDS011;34289;48.572;13.378;2023-02-04T08:07:40;5.47;;;2.97;;
48487;SDS011;34289;48.572;13.378;2023-02-04T08:10:06;3.78;;;3.47;;
48487;SDS011;34289;48.572;13.378;2023-02-04T08:12:33;3.92;;;3.60;;
48487;SDS011;34289;48.572;13.378;2023-02-04T08:14:58;4.45;;;4.05;;
48487;SDS011;34289;48.572;13.378;2023-02-04T08:17:25;3.83;;;3.58;;
48487;SDS011;34289;48.572;13.378;2023-02-04T08:19:51;5.30;;;3.72;;
48487;SDS011;34289;48.572;13.378;2023-02-04T08:22:17;4.43;;;3.50;;
48487;SDS011;34289;48.572;13.378;2023-02-04T08:24:44;3.10;;;2.50;;
48487;SDS011;34289;48.572;13.378;2023-02-04T08:27:09;3.33;;;3.05;;
48487;SDS011;34289;48.572;13.378;2023-02-04T08:29:35;2.83;;;2.60;;
48487;SDS011;34289;48.572;13.378;2023-02-04T08:32:01;3.05;;;2.72;;
48487;SDS011;34289;48.572;13.378;2023-02-04T08:34:26;3.47;;;2.10;;
48487;SDS011;34289;48.572;13.378;2023-02-04T08:36:52;2.70;;;2.50;;
48487;SDS011;34289;48.572;13.378;2023-02-04T08:39:18;2.50;;;2.30;;
48487;SDS011;34289;48.572;13.378;2023-02-04T08:41:43;2.50;;;2.30;;
48487;SDS011;34289;48.572;13.378;2023-02-04T08:44:09;2.75;;;2.55;;
48487;SDS011;34289;48.572;13.378;2023-02-04T08:46:34;2.80;;;2.60;;
48487;SDS011;34289;48.572;13.378;2023-02-04T08:49:00;3.10;;;2.90;;
48487;SDS011;34289;48.572;13.378;2023-02-04T08:51:26;3.17;;;2.97;;
48487;SDS011;34289;48.572;13.378;2023-02-04T08:53:51;3.20;;;3.00;;
48487;SDS011;34289;48.572;13.378;2023-02-04T08:56:17;3.40;;;3.20;;
48487;SDS011;34289;48.572;13.378;2023-02-04T08:58:44;4.07;;;3.88;;
48487;SDS011;34289;48.572;13.378;2023-02-04T09:01:12;4.22;;;4.00;;
48487;SDS011;34289;48.572;13.378;2023-02-04T09:03:38;4.43;;;4.22;;
48487;SDS011;34289;48.572;13.378;2023-02-04T09:06:04;4.15;;;3.95;;
48487;SDS011;34289;48.572;13.378;2023-02-04T09:08:30;4.72;;;4.10;;
48487;SDS011;34289;48.572;13.378;2023-02-04T09:10:57;4.60;;;4.30;;
48487;SDS011;34289;48.572;13.378;2023-02-04T09:13:23;4.60;;;4.38;;
48487;SDS011;34289;48.572;13.378;2023-02-04T09:15:49;4.97;;;4.70;;
48487;SDS011;34289;48.572;13.378;2023-02-04T09:18:23;5.80;;;5.40;;
48487;SDS011;34289;48.572;13.378;2023-02-04T09:21:22;7.65;;;7.05;;
48487;SDS011;34289;48.572;13.378;2023-02-04T09:23:48;7.45;;;6.95;;
48487;SDS011;34289;48.572;13.378;2023-02-04T09:26:14;7.63;;;7.10;;
48487;SDS011;34289;48.572;13.378;2023-02-04T09:28:39;6.97;;;6.47;;
48487;SDS011;34289;48.572;13.378;2023-02-04T09:31:05;7.85;;;7.15;;
48487;SDS011;34289;48.572;13.378;2023-02-04T09:33:31;8.52;;;7.70;;
48487;SDS011;34289;48.572;13.378;2023-02-04T09:35:57;9.25;;;8.25;;
48487;SDS011;34289;48.572;13.378;2023-02-04T09:38:23;11.50;;;9.25;;
48487;SDS011;34289;48.572;13.378;2023-02-04T09:40:50;9.35;;;8.45;;
48487;SDS011;34289;48.572;13.378;2023-02-04T09:43:20;12.27;;;9.85;;
48487;SDS011;34289;48.572;13.378;2023-02-04T09:45:53;20.05;;;10.95;;
48487;SDS011;34289;48.572;13.378;2023-02-04T09:48:20;9.23;;;8.20;;
48487;SDS011;34289;48.572;13.378;2023-02-04T09:50:47;7.47;;;7.07;;
48487;SDS011;34289;48.572;13.378;2023-02-04T09:53:15;6.68;;;6.30;;
48487;SDS011;34289;48.572;13.378;2023-02-04T09:55:46;7.07;;;6.60;;
48487;SDS011;34289;48.572;13.378;2023-02-04T09:58:13;6.90;;;6.50;;
48487;SDS011;34289;48.572;13.378;2023-02-04T10:00:44;6.88;;;6.47;;
48487;SDS011;34289;48.572;13.378;2023-02-04T10:03:15;6.50;;;6.10;;
48487;SDS011;34289;48.572;13.378;2023-02-04T10:05:47;6.57;;;6.22;;
48487;SDS011;34289;48.572;13.378;2023-02-04T10:08:15;6.45;;;6.03;;
48487;SDS011;34289;48.572;13.378;2023-02-04T10:10:43;6.28;;;5.88;;
48487;SDS011;34289;48.572;13.378;2023-02-04T10:13:13;5.80;;;5.50;;
48487;SDS011;34289;48.572;13.378;2023-02-04T10:15:45;6.35;;;5.95;;
48487;SDS011;34289;48.572;13.378;2023-02-04T10:18:18;6.30;;;5.90;;
48487;SDS011;34289;48.572;13.378;2023-02-04T10:20:51;6.00;;;5.70;;
48487;SDS011;34289;48.572;13.378;2023-02-04T10:23:21;6.78;;;6.38;;
48487;SDS011;34289;48.572;13.378;2023-02-04T10:25:47;6.22;;;5.88;;
48487;SDS011;34289;48.572;13.378;2023-02-04T10:28:12;6.72;;;6.43;;
48487;SDS011;34289;48.572;13.378;2023-02-04T10:30:40;7.30;;;6.90;;
48487;SDS011;34289;48.572;13.378;2023-02-04T10:33:11;6.90;;;6.40;;
48487;SDS011;34289;48.572;13.378;2023-02-04T10:35:46;7.07;;;6.68;;
48487;SDS011;34289;48.572;13.378;2023-02-04T10:38:14;6.95;;;6.55;;
48487;SDS011;34289;48.572;13.378;2023-02-04T10:40:40;6.70;;;6.30;;
48487;SDS011;34289;48.572;13.378;2023-02-04T10:43:10;6.80;;;6.38;;
48487;SDS011;34289;48.572;13.378;2023-02-04T10:45:43;6.70;;;6.30;;
48487;SDS011;34289;48.572;13.378;2023-02-04T10:48:19;6.13;;;5.72;;
48487;SDS011;34289;48.572;13.378;2023-02-04T10:50:45;7.38;;;6.88;;
48487;SDS011;34289;48.572;13.378;2023-02-04T10:53:12;6.60;;;6.20;;
48487;SDS011;34289;48.572;13.378;2023-02-04T10:55:59;6.25;;;5.85;;
48487;SDS011;34289;48.572;13.378;2023-02-04T10:58:27;6.03;;;5.63;;
48487;SDS011;34289;48.572;13.378;2023-02-04T11:00:54;6.00;;;5.70;;
48487;SDS011;34289;48.572;13.378;2023-02-04T11:03:26;6.55;;;6.18;;
48487;SDS011;34289;48.572;13.378;2023-02-04T11:05:57;6.90;;;6.50;;
48487;SDS011;34289;48.572;13.378;2023-02-04T11:08:28;7.10;;;6.60;;
48487;SDS011;34289;48.572;13.378;2023-02-04T11:11:03;7.30;;;6.90;;
48487;SDS011;34289;48.572;13.378;2023-02-04T11:18:51;6.63;;;6.22;;
48487;SDS011;34289;48.572;13.378;2023-02-04T11:26:36;7.43;;;7.00;;
48487;SDS011;34289;48.572;13.378;2023-02-04T11:34:44;7.10;;;6.70;;
48487;SDS011;34289;48.572;13.378;2023-02-04T11:37:11;7.28;;;6.80;;
48487;SDS011;34289;48.572;13.378;2023-02-04T11:39:43;7.85;;;7.45;;
48487;SDS011;34289;48.572;13.378;2023-02-04T11:42:15;7.53;;;7.13;;
48487;SDS011;34289;48.572;13.378;2023-02-04T11:44:59;8.20;;;7.70;;
48487;SDS011;34289;48.572;13.378;2023-02-04T11:47:33;7.60;;;7.20;;
48487;SDS011;34289;48.572;13.378;2023-02-04T11:50:10;8.55;;;8.05;;
48487;SDS011;34289;48.572;13.378;2023-02-04T11:53:07;8.93;;;8.43;;
48487;SDS011;34289;48.572;13.378;2023-02-04T11:55:36;9.25;;;8.75;;
48487;SDS011;34289;48.572;13.378;2023-02-04T11:58:13;9.23;;;8.63;;
48487;SDS011;34289;48.572;13.378;2023-02-04T12:00:40;6.30;;;6.00;;
48487;SDS011;34289;48.572;13.378;2023-02-04T12:05:49;6.20;;;5.80;;
48487;SDS011;34289;48.572;13.378;2023-02-04T12:11:01;7.28;;;6.88;;
48487;SDS011;34289;48.572;13.378;2023-02-04T12:13:27;7.20;;;6.80;;
48487;SDS011;34289;48.572;13.378;2023-02-04T12:15:57;6.40;;;6.00;;
48487;SDS011;34289;48.572;13.378;2023-02-04T12:18:24;6.97;;;6.65;;
48487;SDS011;34289;48.572;13.378;2023-02-04T12:20:54;6.60;;;6.30;;
48487;SDS011;34289;48.572;13.378;2023-02-04T12:23:21;7.40;;;7.00;;
48487;SDS011;34289;48.572;13.378;2023-02-04T12:25:47;7.40;;;7.00;;
48487;SDS011;34289;48.572;13.378;2023-02-04T12:28:13;6.53;;;6.13;;
48487;SDS011;34289;48.572;13.378;2023-02-04T12:30:39;7.22;;;6.82;;
48487;SDS011;34289;48.572;13.378;2023-02-04T12:33:05;6.85;;;6.45;;
48487;SDS011;34289;48.572;13.378;2023-02-04T12:35:31;6.15;;;5.85;;
48487;SDS011;34289;48.572;13.378;2023-02-04T12:37:57;8.98;;;6.38;;
48487;SDS011;34289;48.572;13.378;2023-02-04T12:40:23;6.60;;;6.30;;
48487;SDS011;34289;48.572;13.378;2023-02-04T12:42:49;8.65;;;8.15;;
48487;SDS011;34289;48.572;13.378;2023-02-04T12:45:15;6.82;;;6.28;;
48487;SDS011;34289;48.572;13.378;2023-02-04T12:47:41;8.10;;;7.70;;
48487;SDS011;34289;48.572;13.378;2023-02-04T12:50:08;8.32;;;7.93;;
48487;SDS011;34289;48.572;13.378;2023-02-04T12:52:36;7.40;;;7.00;;
48487;SDS011;34289;48.572;13.378;2023-02-04T12:55:03;7.25;;;6.95;;
48487;SDS011;34289;48.572;13.378;2023-02-04T12:57:30;7.35;;;6.95;;
48487;SDS011;34289;48.572;13.378;2023-02-04T12:59:55;7.60;;;7.20;;
48487;SDS011;34289;48.572;13.378;2023-02-04T13:02:23;8.80;;;8.30;;
48487;SDS011;34289;48.572;13.378;2023-02-04T13:04:50;8.23;;;7.72;;
48487;SDS011;34289;48.572;13.378;2023-02-04T13:07:16;6.45;;;6.05;;
48487;SDS011;34289;48.572;13.378;2023-02-04T13:09:41;22.17;;;14.88;;
48487;SDS011;34289;48.572;13.378;2023-02-04T13:12:09;7.47;;;6.97;;
48487;SDS011;34289;48.572;13.378;2023-02-04T13:14:37;6.80;;;6.40;;
48487;SDS011;34289;48.572;13.378;2023-02-04T13:17:03;9.85;;;9.05;;
48487;SDS011;34289;48.572;13.378;2023-02-04T13:19:29;9.10;;;8.50;;
48487;SDS011;34289;48.572;13.378;2023-02-04T13:21:56;8.10;;;7.70;;
48487;SDS011;34289;48.572;13.378;2023-02-04T13:24:22;7.78;;;7.38;;
48487;SDS011;34289;48.572;13.378;2023-02-04T13:26:48;6.57;;;6.25;;
48487;SDS011;34289;48.572;13.378;2023-02-04T13:29:14;6.93;;;6.40;;
48487;SDS011;34289;48.572;13.378;2023-02-04T13:31:40;7.40;;;7.00;;
48487;SDS011;34289;48.572;13.378;2023-02-04T13:34:05;6.15;;;5.85;;
48487;SDS011;34289;48.572;13.378;2023-02-04T13:36:31;6.65;;;6.25;;
48487;SDS011;34289;48.572;13.378;2023-02-04T13:38:56;7.03;;;6.63;;
48487;SDS011;34289;48.572;13.378;2023-02-04T13:41:24;7.20;;;6.70;;
48487;SDS011;34289;48.572;13.378;2023-02-04T13:43:50;7.88;;;7.38;;
48487;SDS011;34289;48.572;13.378;2023-02-04T13:46:15;8.35;;;7.75;;
48487;SDS011;34289;48.572;13.378;2023-02-04T13:48:41;8.20;;;7.70;;
48487;SDS011;34289;48.572;13.378;2023-02-04T13:51:06;7.90;;;7.45;;
48487;SDS011;34289;48.572;13.378;2023-02-04T13:53:32;7.70;;;7.30;;
48487;SDS011;34289;48.572;13.378;2023-02-04T13:55:58;7.65;;;7.25;;
48487;SDS011;34289;48.572;13.378;2023-02-04T13:58:25;7.28;;;6.88;;
48487;SDS011;34289;48.572;13.378;2023-02-04T14:00:51;7.63;;;7.22;;
48487;SDS011;34289;48.572;13.378;2023-02-04T14:03:21;7.50;;;7.10;;
48487;SDS011;34289;48.572;13.378;2023-02-04T14:05:50;7.80;;;7.22;;
48487;SDS011;34289;48.572;13.378;2023-02-04T14:08:16;8.10;;;7.60;;
48487;SDS011;34289;48.572;13.378;2023-02-04T14:10:42;7.63;;;7.15;;
48487;SDS011;34289;48.572;13.378;2023-02-04T14:13:08;7.60;;;7.20;;
48487;SDS011;34289;48.572;13.378;2023-02-04T14:15:37;7.47;;;7.07;;
48487;SDS011;34289;48.572;13.378;2023-02-04T14:18:04;7.60;;;7.20;;
48487;SDS011;34289;48.572;13.378;2023-02-04T14:20:30;7.10;;;6.70;;
48487;SDS011;34289;48.572;13.378;2023-02-04T14:22:56;7.10;;;6.70;;
48487;SDS011;34289;48.572;13.378;2023-02-04T14:25:22;6.80;;;6.40;;
48487;SDS011;34289;48.572;13.378;2023-02-04T14:27:47;6.70;;;6.30;;
48487;SDS011;34289;48.572;13.378;2023-02-04T14:30:20;7.38;;;6.97;;
48487;SDS011;34289;48.572;13.378;2023-02-04T14:32:50;7.65;;;7.05;;
48487;SDS011;34289;48.572;13.378;2023-02-04T14:35:16;7.97;;;7.50;;
48487;SDS011;34289;48.572;13.378;2023-02-04T14:37:43;7.63;;;7.22;;
48487;SDS011;34289;48.572;13.378;2023-02-04T14:40:09;7.90;;;7.50;;
48487;SDS011;34289;48.572;13.378;2023-02-04T14:42:36;7.70;;;7.30;;
48487;SDS011;34289;48.572;13.378;2023-02-04T14:45:05;7.35;;;6.78;;
48487;SDS011;34289;48.572;13.378;2023-02-04T14:47:36;7.40;;;7.00;;
48487;SDS011;34289;48.572;13.378;2023-02-04T14:50:03;7.70;;;7.20;;
48487;SDS011;34289;48.572;13.378;2023-02-04T14:52:31;7.60;;;7.10;;